Lowes, Kentucky
Current Conditions -  °F | °C
As of 6:53 AM on Wednesday 22 Oct 2014 (Local Time) from KPAH Reporting Station
Clear Clear  
Wind Chill: 42°   Ceiling: Unl
Heat Index: 42°   Visibility: 9mi
Dew Point: 40°   Wind: 3mph
Humidity: 92%   Direction: 40°NE
Pressure: 30.25"   Gusts: NA
Location:  36.89°N, 88.77°W
Report Text: KPAH 221153Z 04003KT 9SM CLR 06/04 A3025 RMK AO2 SLP242 T00560044 10078 20050 52019
Loading
Personal Weather Stations






























Interactive Weather Map
Tropical Storm Tracking
New forecast layout! Learn more

10-Day Weather Forecast

Advertisements
Track Severe Weather on mobile